Phoenix Cross — MRBQ7 — position and weather

sailwx.info

Track history (hours):
 
Tides and Currents Weather Stations Pressure Air Temp Water Temp Dewpoint Dewpoint Depression Visibility Wind Speed Wind Dir Waves Ship Positions

Phoenix Cross

Last reported at 2015-May-24 14:32 UTC. Time now 2015-May-25 01:31 UTC.
Position N 54°35' W 001°13'.

Length 30 m; draft 5 m.

Type: Ship. MMSI: 235067452.

Date/timePositionNaut miles runAvg speedWind from/ knotsBaromVisibWave heightAir tempDewpointWater temp
2015-May-24 14:32N 54°35' W 001°13'0 0.0
2015-May-24 13:33N 54°35' W 001°13'0 0.0
2015-May-24 12:32N 54°35' W 001°13'0 0.0
2015-May-24 11:32N 54°35' W 001°13'0 0.0
2015-May-24 10:32N 54°35' W 001°13'0 0.0
2015-May-24 09:32N 54°35' W 001°13'0 0.0
2015-May-24 08:32N 54°35' W 001°13'2 2.0
2015-May-24 07:33N 54°36' W 001°10'2 2.5
2015-May-24 06:33N 54°38' W 001°09'3 3.3
2015-May-24 05:33N 54°35' W 001°11'1 0.1
2015-May-23 15:29N 54°35' W 001°13'0 0.0
2015-May-23 14:33N 54°35' W 001°13'0 0.0
2015-May-23 13:33N 54°35' W 001°13'0 0.0
2015-May-23 12:33N 54°35' W 001°13'0 0.0
2015-May-23 11:33N 54°35' W 001°13'0 0.0
2015-May-23 10:33N 54°35' W 001°13'0 0.0
2015-May-23 09:33N 54°35' W 001°13'0 0.0
2015-May-23 08:33N 54°35' W 001°13'0 0.0
2015-May-23 07:32N 54°35' W 001°13'0 0.0
2015-May-23 06:33N 54°35' W 001°13'0 0.0
2015-May-23 05:33N 54°35' W 001°13'0 0.0
2015-May-22 16:32N 54°35' W 001°13'0 0.0
2015-May-22 15:34N 54°35' W 001°13'0 0.0
2015-May-22 14:33N 54°35' W 001°13'0 0.0
2015-May-22 13:33N 54°35' W 001°13'0 0.0
2015-May-22 12:33N 54°35' W 001°13'0 0.0
2015-May-22 11:31N 54°35' W 001°13'0 0.0
2015-May-22 10:32N 54°35' W 001°13'0 0.0
2015-May-22 09:32N 54°35' W 001°13'1 0.9
2015-May-22 08:33N 54°35' W 001°11'2 2.4
2015-May-22 07:33N 54°37' W 001°10'1 1.1
2015-May-22 06:33N 54°38' W 001°09'3 3.2
2015-May-22 05:32N 54°35' W 001°11'1 0.1
2015-May-21 15:31N 54°35' W 001°13'0 0.0
2015-May-21 14:32N 54°35' W 001°13'3 2.6
2015-May-21 13:33N 54°37' W 001°09'0 0.2
2015-May-21 12:33N 54°36' W 001°10'1 1.2
2015-May-21 11:33N 54°37' W 001°09'3 3.3
2015-May-21 10:34N 54°35' W 001°13'0 0.0
2015-May-21 09:33N 54°35' W 001°13'0 0.0
2015-May-21 08:33N 54°35' W 001°13'2 1.5
2015-May-21 07:33N 54°36' W 001°11'2 2.0
2015-May-21 06:34N 54°38' W 001°10'3 3.1
2015-May-21 05:31N 54°35' W 001°12'0 0.0
2015-May-20 16:32N 54°35' W 001°13'0 0.0
2015-May-20 15:31N 54°35' W 001°13'0 0.0
2015-May-20 14:34N 54°35' W 001°13'0 0.0
2015-May-20 13:33N 54°35' W 001°13'0 0.0
2015-May-20 12:33N 54°35' W 001°13'0 0.0
2015-May-20 11:33N 54°35' W 001°13'0 0.0
2015-May-20 10:34N 54°35' W 001°13'0 0.0
2015-May-20 09:33N 54°35' W 001°13'0 0.0
2015-May-20 08:33N 54°35' W 001°13'0 0.0
2015-May-20 07:33N 54°35' W 001°13'0 0.0
2015-May-20 06:33N 54°35' W 001°13'0 0.0
2015-May-20 05:34N 54°35' W 001°13'2 0.2
2015-May-19 16:04N 54°36' W 001°09'1 1.8
2015-May-19 15:33N 54°37' W 001°09'3 3.0
2015-May-19 14:32N 54°35' W 001°13'0 0.0
2015-May-19 13:32N 54°35' W 001°13'0 0.0
2015-May-19 12:33N 54°35' W 001°13'0 0.0
2015-May-19 11:33N 54°35' W 001°13'3 3.3
2015-May-19 10:33N 54°38' W 001°10'3 3.2
2015-May-19 09:33N 54°35' W 001°13'0 0.1
2015-May-19 08:34N 54°35' W 001°13'0 0.0
2015-May-19 07:33N 54°35' W 001°13'0 0.0
2015-May-19 06:32N 54°35' W 001°13'0 0.0
2015-May-19 05:33N 54°35' W 001°13'0 0.0
2015-May-18 16:33N 54°35' W 001°13'3 3.0
2015-May-18 15:33N 54°37' W 001°10'3 2.9
2015-May-18 14:32N 54°35' W 001°13'0 0.0
2015-May-18 13:33N 54°35' W 001°13'0 0.0
2015-May-18 12:33N 54°35' W 001°13'0 0.0
2015-May-18 11:33N 54°35' W 001°13'0 0.0
2015-May-18 10:33N 54°35' W 001°13'0 0.0
2015-May-18 09:33N 54°35' W 001°13'0 0.0
2015-May-18 08:31N 54°35' W 001°13'2 2.4
2015-May-18 07:33N 54°36' W 001°10'1 1.4
2015-May-18 06:33N 54°38' W 001°09'2 2.5
2015-May-18 05:32N 54°35' W 001°11'1 0.1
2015-May-17 16:33N 54°35' W 001°13'0 0.0
2015-May-17 15:31N 54°35' W 001°13'0 0.0
2015-May-17 14:34N 54°35' W 001°13'0 0.0
2015-May-17 13:33N 54°35' W 001°13'0 0.0
2015-May-17 12:33N 54°35' W 001°13'0 0.0
2015-May-17 11:33N 54°35' W 001°13'0 0.0
2015-May-17 10:31N 54°35' W 001°13'0 0.0
2015-May-17 09:32N 54°35' W 001°13'0 0.0
2015-May-17 08:33N 54°35' W 001°13'0 0.0
2015-May-17 07:33N 54°35' W 001°13'4 3.7
2015-May-17 06:33N 54°38' W 001°09'3 3.1
2015-May-17 05:33N 54°35' W 001°12'1 0.0
2015-May-16 15:07N 54°35' W 001°13'0 0.0
2015-May-16 14:33N 54°35' W 001°13'3 3.3
2015-May-16 13:33N 54°37' W 001°09'1 1.2
2015-May-16 12:33N 54°39' W 001°09'4 4.3
2015-May-16 11:33N 54°35' W 001°13'0 0.0
2015-May-16 10:32N 54°35' W 001°13'0 0.0
2015-May-16 09:33N 54°35' W 001°13'0 0.0
2015-May-16 08:33N 54°35' W 001°13'0 0.0
2015-May-16 07:33N 54°35' W 001°13'0 0.0
2015-May-16 06:33N 54°35' W 001°13'0 0.0
2015-May-16 05:33N 54°35' W 001°13'2 0.2
2015-May-15 17:15N 54°36' W 001°09'0 0.5
2015-May-15 16:33N 54°36' W 001°10'0 0.0
2015-May-15 15:32N 54°36' W 001°10'0 0.4
2015-May-15 14:34N 54°36' W 001°10'2 2.2
2015-May-15 13:33N 54°35' W 001°14'4 4.0
2015-May-15 12:33N 54°38' W 001°09'2 1.9
2015-May-15 11:33N 54°40' W 001°09'6 5.8
2015-May-15 10:33N 54°35' W 001°13'0 0.0
2015-May-15 09:34N 54°35' W 001°13'0 0.0
2015-May-15 08:33N 54°35' W 001°13'3 3.0
2015-May-15 07:33N 54°37' W 001°09'3 2.9
2015-May-15 06:32N 54°35' W 001°13'0 0.0
2015-May-14 23:22N 54°35' W 001°13'0 0.0
2015-May-14 17:17N 54°35' W 001°13'0 0.0
2015-May-14 16:34N 54°35' W 001°13'0 0.0
2015-May-14 15:33N 54°35' W 001°13'  
Track history (hours):
 
Tides and Currents Weather Stations Pressure Air Temp Water Temp Dewpoint Dewpoint Depression Visibility Wind Speed Wind Dir Waves Ship Positions

Phoenix Cross

Last reported at 2015-May-24 14:32 UTC. Time now 2015-May-25 01:31 UTC.
Position N 54°35' W 001°13'.

Length 30 m; draft 5 m.

Type: Ship. MMSI: 235067452.

Date/timePositionNaut miles runAvg speedWind from/ knotsBaromVisibWave heightAir tempDewpointWater temp
2015-May-24 14:32N 54°35' W 001°13'0 0.0
2015-May-24 13:33N 54°35' W 001°13'0 0.0
2015-May-24 12:32N 54°35' W 001°13'0 0.0
2015-May-24 11:32N 54°35' W 001°13'0 0.0
2015-May-24 10:32N 54°35' W 001°13'0 0.0
2015-May-24 09:32N 54°35' W 001°13'0 0.0
2015-May-24 08:32N 54°35' W 001°13'2 2.0
2015-May-24 07:33N 54°36' W 001°10'2 2.5
2015-May-24 06:33N 54°38' W 001°09'3 3.3
2015-May-24 05:33N 54°35' W 001°11'1 0.1
2015-May-23 15:29N 54°35' W 001°13'0 0.0
2015-May-23 14:33N 54°35' W 001°13'0 0.0
2015-May-23 13:33N 54°35' W 001°13'0 0.0
2015-May-23 12:33N 54°35' W 001°13'0 0.0
2015-May-23 11:33N 54°35' W 001°13'0 0.0
2015-May-23 10:33N 54°35' W 001°13'0 0.0
2015-May-23 09:33N 54°35' W 001°13'0 0.0
2015-May-23 08:33N 54°35' W 001°13'0 0.0
2015-May-23 07:32N 54°35' W 001°13'0 0.0
2015-May-23 06:33N 54°35' W 001°13'0 0.0
2015-May-23 05:33N 54°35' W 001°13'0 0.0
2015-May-22 16:32N 54°35' W 001°13'0 0.0
2015-May-22 15:34N 54°35' W 001°13'0 0.0
2015-May-22 14:33N 54°35' W 001°13'0 0.0
2015-May-22 13:33N 54°35' W 001°13'0 0.0
2015-May-22 12:33N 54°35' W 001°13'0 0.0
2015-May-22 11:31N 54°35' W 001°13'0 0.0
2015-May-22 10:32N 54°35' W 001°13'0 0.0
2015-May-22 09:32N 54°35' W 001°13'1 0.9
2015-May-22 08:33N 54°35' W 001°11'2 2.4
2015-May-22 07:33N 54°37' W 001°10'1 1.1
2015-May-22 06:33N 54°38' W 001°09'3 3.2
2015-May-22 05:32N 54°35' W 001°11'1 0.1
2015-May-21 15:31N 54°35' W 001°13'0 0.0
2015-May-21 14:32N 54°35' W 001°13'3 2.6
2015-May-21 13:33N 54°37' W 001°09'0 0.2
2015-May-21 12:33N 54°36' W 001°10'1 1.2
2015-May-21 11:33N 54°37' W 001°09'3 3.3
2015-May-21 10:34N 54°35' W 001°13'0 0.0
2015-May-21 09:33N 54°35' W 001°13'0 0.0
2015-May-21 08:33N 54°35' W 001°13'2 1.5
2015-May-21 07:33N 54°36' W 001°11'2 2.0
2015-May-21 06:34N 54°38' W 001°10'3 3.1
2015-May-21 05:31N 54°35' W 001°12'0 0.0
2015-May-20 16:32N 54°35' W 001°13'0 0.0
2015-May-20 15:31N 54°35' W 001°13'0 0.0
2015-May-20 14:34N 54°35' W 001°13'0 0.0
2015-May-20 13:33N 54°35' W 001°13'0 0.0
2015-May-20 12:33N 54°35' W 001°13'0 0.0
2015-May-20 11:33N 54°35' W 001°13'0 0.0
2015-May-20 10:34N 54°35' W 001°13'0 0.0
2015-May-20 09:33N 54°35' W 001°13'0 0.0
2015-May-20 08:33N 54°35' W 001°13'0 0.0
2015-May-20 07:33N 54°35' W 001°13'0 0.0
2015-May-20 06:33N 54°35' W 001°13'0 0.0
2015-May-20 05:34N 54°35' W 001°13'2 0.2
2015-May-19 16:04N 54°36' W 001°09'1 1.8
2015-May-19 15:33N 54°37' W 001°09'3 3.0
2015-May-19 14:32N 54°35' W 001°13'0 0.0
2015-May-19 13:32N 54°35' W 001°13'0 0.0
2015-May-19 12:33N 54°35' W 001°13'0 0.0
2015-May-19 11:33N 54°35' W 001°13'3 3.3
2015-May-19 10:33N 54°38' W 001°10'3 3.2
2015-May-19 09:33N 54°35' W 001°13'0 0.1
2015-May-19 08:34N 54°35' W 001°13'0 0.0
2015-May-19 07:33N 54°35' W 001°13'0 0.0
2015-May-19 06:32N 54°35' W 001°13'0 0.0
2015-May-19 05:33N 54°35' W 001°13'0 0.0
2015-May-18 16:33N 54°35' W 001°13'3 3.0
2015-May-18 15:33N 54°37' W 001°10'3 2.9
2015-May-18 14:32N 54°35' W 001°13'0 0.0
2015-May-18 13:33N 54°35' W 001°13'0 0.0
2015-May-18 12:33N 54°35' W 001°13'0 0.0
2015-May-18 11:33N 54°35' W 001°13'0 0.0
2015-May-18 10:33N 54°35' W 001°13'0 0.0
2015-May-18 09:33N 54°35' W 001°13'0 0.0
2015-May-18 08:31N 54°35' W 001°13'2 2.4
2015-May-18 07:33N 54°36' W 001°10'1 1.4
2015-May-18 06:33N 54°38' W 001°09'2 2.5
2015-May-18 05:32N 54°35' W 001°11'1 0.1
2015-May-17 16:33N 54°35' W 001°13'0 0.0
2015-May-17 15:31N 54°35' W 001°13'0 0.0
2015-May-17 14:34N 54°35' W 001°13'0 0.0
2015-May-17 13:33N 54°35' W 001°13'0 0.0
2015-May-17 12:33N 54°35' W 001°13'0 0.0
2015-May-17 11:33N 54°35' W 001°13'0 0.0
2015-May-17 10:31N 54°35' W 001°13'0 0.0
2015-May-17 09:32N 54°35' W 001°13'0 0.0
2015-May-17 08:33N 54°35' W 001°13'0 0.0
2015-May-17 07:33N 54°35' W 001°13'4 3.7
2015-May-17 06:33N 54°38' W 001°09'3 3.1
2015-May-17 05:33N 54°35' W 001°12'1 0.0
2015-May-16 15:07N 54°35' W 001°13'0 0.0
2015-May-16 14:33N 54°35' W 001°13'3 3.3
2015-May-16 13:33N 54°37' W 001°09'1 1.2
2015-May-16 12:33N 54°39' W 001°09'4 4.3
2015-May-16 11:33N 54°35' W 001°13'0 0.0
2015-May-16 10:32N 54°35' W 001°13'0 0.0
2015-May-16 09:33N 54°35' W 001°13'0 0.0
2015-May-16 08:33N 54°35' W 001°13'0 0.0
2015-May-16 07:33N 54°35' W 001°13'0 0.0
2015-May-16 06:33N 54°35' W 001°13'0 0.0
2015-May-16 05:33N 54°35' W 001°13'2 0.2
2015-May-15 17:15N 54°36' W 001°09'0 0.5
2015-May-15 16:33N 54°36' W 001°10'0 0.0
2015-May-15 15:32N 54°36' W 001°10'0 0.4
2015-May-15 14:34N 54°36' W 001°10'2 2.2
2015-May-15 13:33N 54°35' W 001°14'4 4.0
2015-May-15 12:33N 54°38' W 001°09'2 1.9
2015-May-15 11:33N 54°40' W 001°09'6 5.8
2015-May-15 10:33N 54°35' W 001°13'0 0.0
2015-May-15 09:34N 54°35' W 001°13'0 0.0
2015-May-15 08:33N 54°35' W 001°13'3 3.0
2015-May-15 07:33N 54°37' W 001°09'3 2.9
2015-May-15 06:32N 54°35' W 001°13'0 0.0
2015-May-14 23:22N 54°35' W 001°13'0 0.0
2015-May-14 17:17N 54°35' W 001°13'0 0.0
2015-May-14 16:34N 54°35' W 001°13'0 0.0
2015-May-14 15:33N 54°35' W 001°13'  

Dump ship's entire track history